createdAt,value
2023-04-01T00:02:49.460Z,67.69
2023-04-01T00:07:54.750Z,68.27
2023-04-01T00:13:00.116Z,68.56
2023-04-01T00:18:06.731Z,67.92
2023-04-01T00:23:12.371Z,68.13
2023-04-01T00:28:19.872Z,68.63
2023-04-01T00:33:25.143Z,68.42
2023-04-01T00:38:30.640Z,68.43
2023-04-01T00:43:36.529Z,68.14
2023-04-01T00:48:54.281Z,68.71
2023-04-01T00:54:03.261Z,67.85
2023-04-01T00:59:18.017Z,68.26
2023-04-01T01:04:31.971Z,68.26
2023-04-01T01:10:19.607Z,68.47
2023-04-01T01:15:25.107Z,68.64
2023-04-01T01:21:02.184Z,67.72
2023-04-01T01:26:45.296Z,68.23
2023-04-01T01:32:24.881Z,67.85
2023-04-01T01:37:33.510Z,68.70
2023-04-01T01:42:46.419Z,68.13
2023-04-01T01:47:52.324Z,68.10
2023-04-01T01:53:06.881Z,68.09
2023-04-01T01:58:32.383Z,67.58
2023-04-01T02:03:41.193Z,68.99
2023-04-01T02:09:02.720Z,69.01
2023-04-01T02:14:19.465Z,69.02
2023-04-01T02:19:36.766Z,69.51
2023-04-01T02:24:43.855Z,69.45
2023-04-01T02:29:50.000Z,69.68
2023-04-01T02:34:56.123Z,69.70
2023-04-01T02:40:04.359Z,68.75
2023-04-01T02:45:11.311Z,70.31
2023-04-01T02:50:17.483Z,70.41
2023-04-01T02:55:23.096Z,68.90
2023-04-01T03:00:29.489Z,66.95
2023-04-01T03:05:34.922Z,66.71
2023-04-01T03:10:40.780Z,67.15
2023-04-01T03:15:46.906Z,67.04
2023-04-01T03:20:53.652Z,68.08
2023-04-01T03:25:59.118Z,66.51
2023-04-01T03:31:04.817Z,66.26
2023-04-01T03:36:20.752Z,67.09
2023-04-01T03:41:27.065Z,66.71
2023-04-01T03:46:32.658Z,65.05
2023-04-01T03:51:38.245Z,64.78
2023-04-01T03:56:43.535Z,63.00
2023-04-01T04:01:50.003Z,62.66
2023-04-01T04:06:56.288Z,60.48
2023-04-01T04:12:03.516Z,60.00
2023-04-01T04:17:17.233Z,59.97
2023-04-01T04:22:23.286Z,57.75
2023-04-01T04:27:28.828Z,58.43
2023-04-01T04:32:46.251Z,55.36
2023-04-01T04:37:51.904Z,52.17
2023-04-01T04:42:58.208Z,50.81
2023-04-01T04:48:04.108Z,49.41
2023-04-01T04:53:16.177Z,51.97
2023-04-01T04:58:21.832Z,52.78
2023-04-01T05:03:27.949Z,49.56
2023-04-01T05:08:34.387Z,47.40
2023-04-01T05:13:39.796Z,46.66
2023-04-01T05:18:45.886Z,45.82
2023-04-01T05:23:51.461Z,45.35
2023-04-01T05:28:57.102Z,44.73
2023-04-01T05:34:02.583Z,44.23
2023-04-01T05:39:07.823Z,43.64
2023-04-01T05:44:14.426Z,43.52
2023-04-01T05:49:18.654Z,44.07
2023-04-01T05:54:23.680Z,45.29
2023-04-01T05:59:28.774Z,44.38
2023-04-01T06:04:40.693Z,44.13
2023-04-01T06:09:47.677Z,45.44
2023-04-01T06:15:23.029Z,45.54
2023-04-01T06:20:39.413Z,47.21
2023-04-01T06:26:17.518Z,47.94
2023-04-01T06:31:45.104Z,48.10
2023-04-01T06:37:05.119Z,48.56
2023-04-01T06:42:31.145Z,49.53
2023-04-01T06:47:57.063Z,49.46
2023-04-01T06:53:26.997Z,49.72
2023-04-01T06:59:01.355Z,49.56
2023-04-01T07:04:36.955Z,49.49
2023-04-01T07:09:51.489Z,49.23
2023-04-01T07:15:45.673Z,48.10
2023-04-01T07:20:53.730Z,47.67
2023-04-01T07:26:12.919Z,47.08
2023-04-01T07:32:26.183Z,46.70
2023-04-01T07:37:47.800Z,46.58
2023-04-01T07:43:12.339Z,46.50
2023-04-01T07:48:46.307Z,45.98
2023-04-01T07:54:13.674Z,45.28
2023-04-01T08:00:03.016Z,43.06
2023-04-01T08:05:57.685Z,41.76
2023-04-01T08:11:17.236Z,40.15
2023-04-01T08:17:00.285Z,39.47
2023-04-01T08:22:28.511Z,38.48
2023-04-01T08:28:04.541Z,38.40
2023-04-01T08:33:11.172Z,37.86
2023-04-01T08:38:24.671Z,37.50
2023-04-01T08:44:10.302Z,37.38
2023-04-01T08:49:24.979Z,37.75
2023-04-01T08:54:58.612Z,36.78
2023-04-01T09:00:34.628Z,37.23
2023-04-01T09:06:33.816Z,37.05
2023-04-01T09:11:49.792Z,36.72
2023-04-01T09:17:02.361Z,36.68
2023-04-01T09:22:17.061Z,36.33
2023-04-01T09:27:48.292Z,36.76
2023-04-01T09:33:20.240Z,37.52
2023-04-01T09:38:34.632Z,36.68
2023-04-01T09:43:39.201Z,36.25
2023-04-01T09:49:10.073Z,37.31
2023-04-01T09:54:51.110Z,37.24
2023-04-01T10:00:28.512Z,36.49
2023-04-01T10:06:22.214Z,35.77
2023-04-01T10:11:50.294Z,35.29
2023-04-01T10:17:15.269Z,35.23
2023-04-01T10:22:38.332Z,34.92
2023-04-01T10:28:04.134Z,34.05
2023-04-01T10:34:05.734Z,34.64
2023-04-01T10:40:00.408Z,34.59
2023-04-01T10:46:06.481Z,33.63
2023-04-01T10:52:02.235Z,34.06
2023-04-01T10:58:09.793Z,33.10
2023-04-01T11:04:07.468Z,34.72
2023-04-01T11:09:28.781Z,34.33
2023-04-01T11:15:06.996Z,34.55
2023-04-01T11:20:25.845Z,33.99
2023-04-01T11:26:02.916Z,34.88
2023-04-01T11:32:37.976Z,34.11
2023-04-01T11:38:08.533Z,34.56
2023-04-01T11:43:33.947Z,34.20
2023-04-01T11:49:31.337Z,33.95
2023-04-01T11:55:22.591Z,33.50
2023-04-01T12:00:47.634Z,33.75
2023-04-01T12:06:36.964Z,34.25
2023-04-01T12:12:10.628Z,34.30
2023-04-01T12:18:00.876Z,34.83
2023-04-01T12:23:34.552Z,34.52
2023-04-01T12:29:02.744Z,33.63
2023-04-01T12:34:46.083Z,34.46
2023-04-01T12:40:11.726Z,33.34
2023-04-01T12:45:35.526Z,34.30
2023-04-01T12:51:08.822Z,34.26
2023-04-01T12:56:51.490Z,34.41
2023-04-01T13:02:39.324Z,34.22
2023-04-01T13:08:01.361Z,33.52
2023-04-01T13:13:38.872Z,34.54
2023-04-01T13:19:13.275Z,35.59
2023-04-01T13:24:37.846Z,34.63
2023-04-01T13:29:49.601Z,34.52
2023-04-01T13:41:01.591Z,34.91
2023-04-01T13:46:40.469Z,34.80
2023-04-01T13:52:05.875Z,35.84
2023-04-01T13:57:39.183Z,36.60
2023-04-01T14:03:22.713Z,37.01
2023-04-01T14:08:53.721Z,37.63
2023-04-01T14:14:17.857Z,38.31
2023-04-01T14:19:50.684Z,38.15
2023-04-01T14:25:37.706Z,38.63
2023-04-01T14:31:29.181Z,40.15
2023-04-01T14:36:47.180Z,40.96
2023-04-01T14:42:32.987Z,41.49
2023-04-01T14:48:02.927Z,41.72
2023-04-01T14:53:24.951Z,42.20
2023-04-01T14:59:03.009Z,43.17
2023-04-01T15:04:38.171Z,43.40
2023-04-01T15:10:08.229Z,44.97
2023-04-01T15:15:34.224Z,45.27
2023-04-01T15:20:52.196Z,46.36
2023-04-01T15:26:06.310Z,48.50
2023-04-01T15:31:32.834Z,49.86
2023-04-01T15:36:44.386Z,50.64
2023-04-01T15:42:16.003Z,50.93
2023-04-01T15:47:27.959Z,51.78
2023-04-01T15:53:08.356Z,52.06
2023-04-01T15:58:41.686Z,51.73
2023-04-01T16:04:26.229Z,51.70
2023-04-01T16:10:21.704Z,51.99
2023-04-01T16:16:08.526Z,52.22
2023-04-01T16:21:38.586Z,52.16
2023-04-01T16:27:17.515Z,53.63
2023-04-01T16:32:42.679Z,52.97
2023-04-01T16:38:08.788Z,53.57
2023-04-01T16:43:31.818Z,54.38
2023-04-01T16:49:02.973Z,55.08
2023-04-01T16:54:24.836Z,55.57
2023-04-01T17:00:02.448Z,56.21
2023-04-01T17:05:40.772Z,56.35
2023-04-01T17:10:46.480Z,56.57
2023-04-01T17:16:19.863Z,56.84
2023-04-01T17:22:03.259Z,57.82
2023-04-01T17:27:36.405Z,57.26
2023-04-01T17:33:09.967Z,57.55
2023-04-01T17:38:49.106Z,57.58
2023-04-01T17:44:10.344Z,57.85
2023-04-01T17:49:53.359Z,57.72
2023-04-01T17:55:37.856Z,57.52
2023-04-01T18:01:13.502Z,57.85
2023-04-01T18:07:07.031Z,57.97
2023-04-01T18:12:20.345Z,58.85
2023-04-01T18:17:53.205Z,58.99
2023-04-01T18:28:54.560Z,59.07
2023-04-01T18:34:35.014Z,59.28
2023-04-01T18:39:51.008Z,59.64
2023-04-01T18:45:24.262Z,60.16
2023-04-01T18:51:07.562Z,60.21
2023-04-01T18:56:37.648Z,59.90
2023-04-01T19:02:06.728Z,59.87
2023-04-01T19:07:37.460Z,60.57
2023-04-01T19:13:08.832Z,61.21
2023-04-01T19:18:40.049Z,61.19
2023-04-01T19:23:45.117Z,61.13
2023-04-01T19:29:09.242Z,61.11
2023-04-01T19:34:49.540Z,61.02
2023-04-01T19:40:27.846Z,60.87
2023-04-01T19:46:12.237Z,61.66
2023-04-01T19:51:51.809Z,60.87
2023-04-01T19:57:22.833Z,60.40
2023-04-01T20:03:03.832Z,60.19
2023-04-01T20:08:20.978Z,60.10
2023-04-01T20:13:37.518Z,60.35
2023-04-01T20:19:32.259Z,61.43
2023-04-01T20:24:46.635Z,61.26
2023-04-01T20:30:31.901Z,61.74
2023-04-01T20:35:59.112Z,63.47
2023-04-01T20:41:19.520Z,63.25
2023-04-01T20:46:54.861Z,63.38
2023-04-01T20:52:08.640Z,63.55
2023-04-01T20:57:26.294Z,63.72
2023-04-01T21:03:02.736Z,63.92
2023-04-01T21:08:40.960Z,63.50
2023-04-01T21:14:04.605Z,63.04
2023-04-01T21:19:27.278Z,63.26
2023-04-01T21:25:18.378Z,62.76
2023-04-01T21:30:33.429Z,62.91
2023-04-01T21:36:10.095Z,63.34
2023-04-01T21:41:34.962Z,64.18
2023-04-01T21:47:05.665Z,64.48
2023-04-01T21:52:35.296Z,65.02
2023-04-01T21:58:12.712Z,64.53
2023-04-01T22:03:36.690Z,64.73
2023-04-01T22:08:57.488Z,64.46
2023-04-01T22:14:23.252Z,64.47
2023-04-01T22:19:59.169Z,63.71
2023-04-01T22:25:28.705Z,63.97
2023-04-01T22:31:03.458Z,63.72
2023-04-01T22:36:45.043Z,63.89
2023-04-01T22:42:15.060Z,64.79
2023-04-01T22:47:52.958Z,64.20
2023-04-01T22:53:20.200Z,64.44
2023-04-01T22:58:38.608Z,63.35
2023-04-01T23:03:48.439Z,64.04
2023-04-01T23:09:31.714Z,63.97
2023-04-01T23:15:02.348Z,63.57
2023-04-01T23:20:35.295Z,63.16
2023-04-01T23:26:02.601Z,64.22
2023-04-01T23:31:28.638Z,64.36
2023-04-01T23:36:44.884Z,64.32
2023-04-01T23:41:52.291Z,63.44
2023-04-01T23:46:59.194Z,63.00
2023-04-01T23:52:31.745Z,63.04
2023-04-01T23:57:38.306Z,62.43
